Time;durP1;ratioP1;P1;durP2;ratioP2;P2;SDS_P1;SDS_P2;PMS_P1;PMS_P2;Temp;Humidity;BMP_temperature;BMP_pressure;BME280_temperature;BME280_humidity;BME280_pressure;Samples;Min_cycle;Max_cycle;Signal;HPM_P1;HPM_P2
2023/05/03 00:00:19;;;;;;;12.85;9.57;;;;;;;17.72;84.42;100599.16;5110321;28;20061;-67
2023/05/03 00:02:45;;;;;;;10.05;9.00;;;;;;;17.71;83.53;100599.34;5110779;28;20592;-67
2023/05/03 00:05:11;;;;;;;11.77;8.68;;;;;;;17.57;82.22;100576.47;5110162;28;20024;-67
2023/05/03 00:07:42;;;;;;;10.38;8.30;;;;;;;17.59;81.35;100571.72;5110168;28;20381;-67
2023/05/03 00:10:09;;;;;;;10.27;8.45;;;;;;;17.73;81.46;100594.56;5108923;28;20395;-66
2023/05/03 00:12:37;;;;;;;13.80;9.35;;;;;;;17.62;80.77;100571.38;5110205;28;20035;-67
2023/05/03 00:15:02;;;;;;;9.80;8.35;;;;;;;17.61;81.31;100576.97;5110126;28;20027;-67
2023/05/03 00:17:28;;;;;;;15.30;9.07;;;;;;;17.65;81.38;100584.59;5110147;28;20173;-66
2023/05/03 00:19:55;;;;;;;9.80;7.85;;;;;;;17.66;80.47;100590.84;5107844;28;20039;-67
2023/05/03 00:22:21;;;;;;;10.48;8.00;;;;;;;17.59;80.54;100587.16;5110600;28;20035;-68
2023/05/03 00:24:48;;;;;;;11.43;8.82;;;;;;;17.62;80.60;100601.22;5108896;28;20020;-67
2023/05/03 00:27:13;;;;;;;11.55;8.38;;;;;;;17.55;80.85;100589.38;5109838;28;20042;-67
2023/05/03 00:29:39;;;;;;;10.80;8.32;;;;;;;17.53;80.78;100591.41;5109956;28;20387;-67
2023/05/03 00:32:04;;;;;;;9.90;8.25;;;;;;;17.54;80.39;100595.81;5113045;28;20058;-66
2023/05/03 00:34:30;;;;;;;10.00;7.97;;;;;;;17.56;80.60;100603.75;5118055;28;20023;-66
2023/05/03 00:36:55;;;;;;;10.48;8.30;;;;;;;17.54;80.58;100594.97;5112536;28;20635;-67
2023/05/03 00:39:21;;;;;;;12.95;8.32;;;;;;;17.50;80.76;100594.47;5112753;28;20024;-67
2023/05/03 00:41:46;;;;;;;9.23;7.50;;;;;;;17.49;80.29;100600.06;5116941;28;20047;-67
2023/05/03 00:44:12;;;;;;;9.32;8.05;;;;;;;17.48;80.49;100595.66;5117879;28;20029;-66
2023/05/03 00:46:37;;;;;;;10.15;8.23;;;;;;;17.46;80.78;100605.81;5117535;28;20566;-66
2023/05/03 00:49:02;;;;;;;9.98;8.23;;;;;;;17.37;80.81;100585.13;5116542;28;20533;-66
2023/05/03 00:51:28;;;;;;;8.30;7.50;;;;;;;17.43;80.75;100601.59;5112279;28;20031;-67
2023/05/03 00:53:53;;;;;;;11.45;8.50;;;;;;;17.39;81.69;100588.50;5106940;28;20100;-67
2023/05/03 00:56:20;;;;;;;10.55;8.13;;;;;;;17.41;81.38;100598.16;5109190;28;20027;-67
2023/05/03 00:58:45;;;;;;;12.38;7.95;;;;;;;17.42;80.64;100591.75;5109226;28;20028;-67
2023/05/03 01:01:11;;;;;;;10.50;7.95;;;;;;;17.31;80.37;100572.25;5109108;28;20058;-68
2023/05/03 01:03:40;;;;;;;10.07;7.78;;;;;;;17.40;79.39;100596.47;5108969;28;20023;-67
2023/05/03 01:06:15;;;;;;;9.07;7.93;;;;;;;17.41;79.63;100594.63;5108868;28;20034;-67
2023/05/03 01:08:49;;;;;;;7.78;6.97;;;;;;;17.41;79.63;100589.19;5109130;27;20043;-67
2023/05/03 01:11:40;;;;;;;8.73;7.78;;;;;;;17.41;79.53;100597.34;5107222;28;20647;-67
2023/05/03 01:14:23;;;;;;;11.02;8.38;;;;;;;17.55;78.64;100594.81;5109262;28;20035;-67
2023/05/03 01:16:55;;;;;;;12.20;8.57;;;;;;;17.44;79.35;100591.56;5108811;28;20119;-67
2023/05/03 01:20:16;;;;;;;11.00;8.55;;;;;;;17.39;80.02;100602.94;5108838;28;20396;-67
2023/05/03 01:22:45;;;;;;;10.35;8.13;;;;;;;17.29;81.00;100590.56;5024026;28;20123;-67
2023/05/03 01:25:12;;;;;;;10.32;8.82;;;;;;;17.27;81.52;100588.03;5104099;28;20040;-68
2023/05/03 01:27:39;;;;;;;9.30;8.23;;;;;;;17.24;81.75;100598.34;5107957;28;20015;-67
2023/05/03 01:30:08;;;;;;;11.60;8.52;;;;;;;17.21;82.16;100602.25;5106682;28;20510;-67
2023/05/03 01:33:01;;;;;;;11.02;8.32;;;;;;;17.18;81.83;100599.88;5108171;28;20395;-62
2023/05/03 01:35:36;;;;;;;9.77;8.55;;;;;;;17.17;82.45;100594.63;5107649;28;20042;-62
2023/05/03 01:38:03;;;;;;;12.18;8.27;;;;;;;16.98;82.44;100562.44;5106562;28;20074;-62
2023/05/03 01:40:31;;;;;;;10.48;8.45;;;;;;;17.16;82.75;100595.66;5105152;28;20552;-62
2023/05/03 01:42:58;;;;;;;11.63;8.35;;;;;;;17.13;82.25;100594.13;5108794;28;20023;-62
2023/05/03 01:45:25;;;;;;;11.00;8.07;;;;;;;17.13;81.86;100596.84;5108387;28;20043;-62
2023/05/03 01:47:50;;;;;;;9.63;8.45;;;;;;;17.00;82.11;100571.25;5108659;28;20028;-63
2023/05/03 01:50:15;;;;;;;10.00;8.75;;;;;;;17.11;82.37;100592.59;5108390;28;20384;-62
2023/05/03 01:52:41;;;;;;;10.52;8.00;;;;;;;17.10;82.36;100588.19;5108124;28;20031;-62
2023/05/03 01:55:07;;;;;;;9.18;8.20;;;;;;;17.09;82.42;100592.75;5107647;28;20035;-62
2023/05/03 01:57:32;;;;;;;14.65;8.20;;;;;;;17.07;82.57;100583.13;5108390;28;20062;-62
2023/05/03 01:59:58;;;;;;;13.77;9.35;;;;;;;16.99;82.80;100577.72;5107899;28;20063;-62
2023/05/03 02:02:23;;;;;;;11.25;8.35;;;;;;;17.02;83.16;100586.34;5107388;28;20019;-61
2023/05/03 02:04:49;;;;;;;11.70;8.93;;;;;;;17.00;83.43;100585.66;5107384;28;20024;-62
2023/05/03 02:07:14;;;;;;;10.90;9.32;;;;;;;16.99;83.09;100580.41;5107373;28;20063;-62
2023/05/03 02:09:40;;;;;;;11.73;8.93;;;;;;;16.99;83.41;100581.25;5107610;28;20028;-63
2023/05/03 02:12:05;;;;;;;10.45;9.35;;;;;;;16.88;83.56;100561.78;5107219;28;20053;-62
2023/05/03 02:14:31;;;;;;;10.07;9.02;;;;;;;16.75;83.81;100540.63;5107616;28;20031;-62
2023/05/03 02:16:57;;;;;;;10.38;8.65;;;;;;;16.85;83.93;100559.41;5107240;28;20032;-62
2023/05/03 02:19:23;;;;;;;10.88;8.85;;;;;;;16.90;83.89;100568.72;5107608;28;20055;-62
2023/05/03 02:21:49;;;;;;;12.30;8.13;;;;;;;16.95;83.86;100577.19;5106293;28;20070;-62
2023/05/03 02:24:15;;;;;;;11.00;8.88;;;;;;;16.92;83.71;100576.66;5107304;28;20031;-63
2023/05/03 02:26:41;;;;;;;10.73;7.88;;;;;;;16.92;83.60;100573.94;5107724;28;20514;-62
2023/05/03 02:29:06;;;;;;;12.48;8.15;;;;;;;16.90;84.03;100576.00;5107463;28;20086;-63
2023/05/03 02:31:32;;;;;;;10.07;9.07;;;;;;;16.84;83.76;100566.69;5107683;28;20411;-62
2023/05/03 02:33:57;;;;;;;12.55;8.75;;;;;;;16.87;84.00;100577.19;5107428;28;20027;-62
2023/05/03 02:36:23;;;;;;;13.00;8.40;;;;;;;16.67;83.70;100542.47;5107720;28;20024;-62
2023/05/03 02:38:48;;;;;;;11.90;8.23;;;;;;;16.86;84.03;100577.38;5107742;28;20361;-62
2023/05/03 02:41:14;;;;;;;10.90;7.97;;;;;;;16.83;84.28;100575.81;5107293;28;20066;-63
2023/05/03 02:43:39;;;;;;;10.63;7.90;;;;;;;16.75;84.18;100565.00;5107223;28;20023;-62
2023/05/03 02:46:04;;;;;;;9.63;8.32;;;;;;;16.82;84.16;100573.28;5107042;28;20062;-62
2023/05/03 02:48:30;;;;;;;10.70;7.65;;;;;;;16.81;83.79;100577.88;5107559;28;20081;-62
2023/05/03 02:50:56;;;;;;;9.23;7.80;;;;;;;16.73;83.49;100566.19;5105902;28;20032;-62
2023/05/03 02:53:21;;;;;;;10.52;8.30;;;;;;;16.76;83.08;100587.50;5105787;28;20027;-62
2023/05/03 02:55:47;;;;;;;12.13;7.78;;;;;;;16.79;82.42;100592.56;5107255;28;20495;-62
2023/05/03 02:58:12;;;;;;;8.75;7.43;;;;;;;16.75;81.64;100580.38;5106511;28;20138;-62
2023/05/03 03:00:38;;;;;;;9.07;7.35;;;;;;;16.80;81.16;100592.41;5106820;28;20039;-62
2023/05/03 03:03:03;;;;;;;15.10;7.35;;;;;;;16.84;80.36;100590.22;5106609;28;20031;-61
2023/05/03 03:05:28;;;;;;;8.38;7.30;;;;;;;16.76;80.64;100591.06;5106564;28;20024;-62
2023/05/03 03:07:54;;;;;;;11.75;7.45;;;;;;;16.73;80.88;100590.56;5106125;28;20040;-61
2023/05/03 03:10:19;;;;;;;8.20;7.30;;;;;;;16.81;80.77;100601.38;5105690;28;20020;-62
2023/05/03 03:12:45;;;;;;;11.55;7.57;;;;;;;16.80;81.16;100592.41;5107621;28;20031;-62
2023/05/03 03:15:11;;;;;;;11.90;7.80;;;;;;;16.80;81.51;100594.28;5108063;28;20028;-62
2023/05/03 03:17:39;;;;;;;9.73;7.57;;;;;;;16.78;82.01;100601.72;5108355;28;20026;-62
2023/05/03 03:20:10;;;;;;;9.50;7.28;;;;;;;16.70;82.22;100591.72;5107704;28;20365;-68
2023/05/03 03:22:35;;;;;;;9.65;8.20;;;;;;;16.74;82.30;100597.66;5107738;28;20425;-68
2023/05/03 03:25:01;;;;;;;9.32;7.50;;;;;;;16.80;82.13;100607.84;5108848;28;20019;-68
2023/05/03 03:27:26;;;;;;;10.60;7.03;;;;;;;16.74;81.99;100601.22;5110195;27;20022;-68
2023/05/03 03:29:51;;;;;;;9.75;8.00;;;;;;;16.80;82.59;100613.25;5108907;28;20030;-67
2023/05/03 03:32:17;;;;;;;9.93;7.63;;;;;;;16.72;82.69;100599.69;5110210;28;20031;-67
2023/05/03 03:34:42;;;;;;;10.43;7.25;;;;;;;16.78;82.70;100607.16;5108641;28;20035;-67
2023/05/03 03:37:08;;;;;;;11.05;7.22;;;;;;;16.78;82.93;100610.72;5109744;28;20053;-68
2023/05/03 03:39:33;;;;;;;10.15;7.30;;;;;;;16.79;82.85;100614.25;5109518;28;20119;-67
2023/05/03 03:41:59;;;;;;;8.45;7.05;;;;;;;16.80;82.66;100613.25;5109655;28;20185;-67
2023/05/03 03:44:24;;;;;;;8.60;7.78;;;;;;;16.77;82.62;100613.59;5108219;28;20035;-67
2023/05/03 03:46:50;;;;;;;10.18;7.38;;;;;;;16.79;82.37;100616.94;5109291;28;20031;-67
2023/05/03 03:49:15;;;;;;;8.07;6.63;;;;;;;16.78;82.52;100620.69;5109363;28;20040;-67
2023/05/03 03:51:41;;;;;;;8.43;7.20;;;;;;;16.77;82.71;100625.25;5109534;28;20036;-67
2023/05/03 03:54:06;;;;;;;8.98;7.45;;;;;;;16.74;82.57;100614.78;5109864;27;20029;-68
2023/05/03 03:56:32;;;;;;;9.15;7.13;;;;;;;16.73;83.15;100625.78;5109967;28;20025;-68
2023/05/03 03:58:57;;;;;;;7.65;6.90;;;;;;;16.73;82.53;100628.50;5110332;28;20050;-68
2023/05/03 04:01:22;;;;;;;9.45;6.70;;;;;;;16.76;82.46;100630.81;5110793;28;20035;-67
2023/05/03 04:03:48;;;;;;;9.70;6.80;;;;;;;16.64;82.59;100613.22;5110497;28;20088;-68
2023/05/03 04:06:13;;;;;;;10.73;7.13;;;;;;;16.73;82.84;100640.16;5110837;28;20024;-67
2023/05/03 04:08:39;;;;;;;9.70;7.30;;;;;;;16.70;82.56;100634.22;5110227;28;20027;-68
2023/05/03 04:11:10;;;;;;;7.03;6.28;;;;;;;16.62;82.08;100620.66;5110372;28;20061;-67
2023/05/03 04:13:36;;;;;;;8.98;6.47;;;;;;;16.70;81.71;100639.66;5108511;28;20020;-67
2023/05/03 04:16:02;;;;;;;9.70;7.18;;;;;;;16.68;81.59;100641.66;5110692;28;20480;-68
2023/05/03 04:18:27;;;;;;;10.73;6.07;;;;;;;16.72;81.10;100643.88;5107758;28;20503;-67
2023/05/03 04:20:52;;;;;;;7.63;6.93;;;;;;;16.68;81.30;100638.97;5110341;28;20119;-68
2023/05/03 04:23:18;;;;;;;8.65;6.55;;;;;;;16.72;80.79;100645.72;5109130;28;20039;-68
2023/05/03 04:25:47;;;;;;;8.98;6.32;;;;;;;16.65;81.03;100645.56;5109088;28;20043;-67
2023/05/03 04:28:13;;;;;;;8.68;5.95;;;;;;;16.65;81.04;100656.41;5108016;28;20396;-67
2023/05/03 04:30:40;;;;;;;10.00;6.05;;;;;;;16.64;81.28;100656.56;5103452;28;20028;-67
2023/05/03 04:33:08;;;;;;;8.30;6.43;;;;;;;16.66;81.04;100660.78;5107294;28;20024;-68
2023/05/03 04:35:34;;;;;;;9.90;6.28;;;;;;;16.65;81.03;100660.94;5109802;28;20505;-67
2023/05/03 04:38:00;;;;;;;7.95;6.18;;;;;;;16.61;81.42;100667.72;5109720;28;20027;-68
2023/05/03 04:40:25;;;;;;;13.43;6.18;;;;;;;16.59;81.78;100667.03;5109683;28;20036;-67
2023/05/03 04:42:51;;;;;;;8.80;5.93;;;;;;;16.58;81.77;100663.50;5109182;28;20491;-66
2023/05/03 04:45:17;;;;;;;7.72;5.80;;;;;;;16.45;82.47;100644.16;5109237;28;20031;-68
2023/05/03 04:47:43;;;;;;;9.32;5.57;;;;;;;16.52;82.75;100657.88;5108528;28;20019;-68
2023/05/03 04:50:09;;;;;;;6.03;5.43;;;;;;;16.45;82.96;100654.13;5107283;28;20422;-67
2023/05/03 04:52:35;;;;;;;6.68;6.03;;;;;;;16.54;83.12;100670.22;5109117;28;20042;-67
2023/05/03 04:55:01;;;;;;;6.32;5.32;;;;;;;16.42;82.92;100649.00;5109095;28;20077;-67
2023/05/03 04:57:27;;;;;;;7.90;5.28;;;;;;;16.48;82.73;100660.03;5108461;28;20107;-67
2023/05/03 04:59:52;;;;;;;6.15;4.97;;;;;;;16.55;82.72;100671.94;5102543;27;20023;-67
2023/05/03 05:02:18;;;;;;;5.93;5.13;;;;;;;16.42;82.78;100651.72;5108213;28;20035;-67
2023/05/03 05:04:44;;;;;;;13.20;5.80;;;;;;;16.50;82.55;100668.88;5107992;28;20032;-67
2023/05/03 05:07:11;;;;;;;13.02;5.55;;;;;;;16.50;82.66;100671.56;5108319;28;20560;-67
2023/05/03 05:09:37;;;;;;;8.13;5.20;;;;;;;16.35;82.66;100647.97;5107501;27;20114;-67
2023/05/03 05:12:02;;;;;;;6.45;5.05;;;;;;;16.54;82.71;100677.50;5107494;28;20236;-67
2023/05/03 05:14:30;;;;;;;8.80;5.10;;;;;;;16.57;82.37;100682.59;5108592;28;20027;-67
2023/05/03 05:16:55;;;;;;;8.48;5.18;;;;;;;16.59;82.23;100675.16;5108245;27;20106;-67
2023/05/03 05:19:21;;;;;;;9.93;5.20;;;;;;;16.55;82.20;100679.22;5108175;28;20110;-67
2023/05/03 05:21:47;;;;;;;7.82;5.00;;;;;;;16.44;81.65;100665.97;5108069;28;20019;-68
2023/05/03 05:24:12;;;;;;;8.00;5.97;;;;;;;16.56;82.23;100686.31;5108175;28;20028;-68
2023/05/03 05:26:38;;;;;;;5.20;4.70;;;;;;;16.57;82.34;100683.44;5106720;28;20118;-67
2023/05/03 05:29:04;;;;;;;7.70;4.85;;;;;;;16.58;82.14;100684.28;5108369;28;20020;-67
2023/05/03 05:31:30;;;;;;;9.18;5.13;;;;;;;16.57;82.19;100685.31;5106183;28;20635;-67
2023/05/03 05:33:55;;;;;;;6.47;5.05;;;;;;;16.58;81.14;100695.13;5107274;28;20026;-67
2023/05/03 05:36:21;;;;;;;9.52;5.82;;;;;;;16.58;80.42;100698.69;5105672;28;20033;-67
2023/05/03 05:38:46;;;;;;;6.55;5.82;;;;;;;16.58;79.99;100705.97;5106536;28;20039;-66
2023/05/03 05:41:11;;;;;;;6.00;5.38;;;;;;;16.61;79.16;100697.50;5101011;28;20395;-67
2023/05/03 05:43:37;;;;;;;8.63;5.95;;;;;;;16.61;78.25;100711.88;5106264;28;20035;-67
2023/05/03 05:46:02;;;;;;;7.38;5.53;;;;;;;16.58;78.50;100698.69;5107482;28;20031;-68
2023/05/03 05:48:29;;;;;;;12.23;6.47;;;;;;;16.55;77.36;100681.91;5108045;28;20019;-67
2023/05/03 05:50:55;;;;;;;7.93;6.60;;;;;;;16.67;77.61;100705.00;5107756;28;20475;-67
2023/05/03 05:53:20;;;;;;;8.63;6.25;;;;;;;16.68;77.18;100709.38;5107872;28;20157;-67
2023/05/03 05:55:45;;;;;;;9.45;6.43;;;;;;;16.68;77.29;100707.53;5106784;28;20028;-67
2023/05/03 05:58:12;;;;;;;7.38;6.45;;;;;;;16.65;76.84;100688.03;5106894;28;20033;-67
2023/05/03 06:00:38;;;;;;;7.75;6.10;;;;;;;16.73;76.86;100712.47;5106820;28;20608;-67
2023/05/03 06:03:04;;;;;;;8.73;6.22;;;;;;;16.75;75.88;100716.69;5107160;28;20024;-67
2023/05/03 06:05:30;;;;;;;8.27;6.47;;;;;;;16.75;76.03;100711.28;5106147;28;20088;-67
2023/05/03 06:07:55;;;;;;;12.60;6.35;;;;;;;16.76;75.54;100707.53;5106634;28;20449;-67
2023/05/03 06:10:20;;;;;;;8.73;5.35;;;;;;;16.70;75.55;100696.53;5103381;28;20076;-68
2023/05/03 06:12:46;;;;;;;7.32;5.53;;;;;;;16.80;75.25;100708.91;5106238;28;20031;-66
2023/05/03 06:15:11;;;;;;;7.47;5.25;;;;;;;16.84;75.44;100717.56;5105694;28;20078;-67
2023/05/03 06:17:37;;;;;;;7.28;5.18;;;;;;;16.85;75.23;100708.41;5106407;28;20077;-67
2023/05/03 06:20:03;;;;;;;9.25;5.32;;;;;;;16.88;74.96;100706.22;5106031;28;20662;-66
2023/05/03 06:22:29;;;;;;;9.10;5.50;;;;;;;16.89;74.85;100698.94;5105133;28;20027;-67
2023/05/03 06:24:55;;;;;;;5.53;4.95;;;;;;;16.93;74.02;100711.16;5107297;28;20160;-67
2023/05/03 06:27:20;;;;;;;8.50;5.57;;;;;;;16.96;74.00;100710.81;5107830;28;20685;-67
2023/05/03 06:29:46;;;;;;;8.60;5.40;;;;;;;16.97;72.90;100707.09;5105538;28;20023;-67
2023/05/03 06:32:12;;;;;;;7.35;5.40;;;;;;;16.99;73.18;100714.03;5107385;28;20023;-67
2023/05/03 06:34:38;;;;;;;7.90;4.78;;;;;;;17.02;73.17;100702.88;5107731;28;20082;-67
2023/05/03 06:37:03;;;;;;;7.05;4.80;;;;;;;17.09;73.22;100713.91;5107357;28;20016;-67
2023/05/03 06:39:29;;;;;;;7.50;5.25;;;;;;;17.12;73.32;100708.97;5106265;28;20035;-67
2023/05/03 06:41:55;;;;;;;9.38;4.85;;;;;;;17.17;72.93;100711.19;5107215;28;20030;-66
2023/05/03 06:44:20;;;;;;;5.97;4.65;;;;;;;17.22;72.70;100714.25;5106102;28;20020;-66
2023/05/03 06:46:46;;;;;;;6.25;4.47;;;;;;;17.29;72.34;100712.56;5106378;28;20019;-66
2023/05/03 06:49:11;;;;;;;7.20;4.95;;;;;;;17.37;72.18;100704.44;5110212;28;20028;-67
2023/05/03 06:51:37;;;;;;;7.07;4.78;;;;;;;17.43;71.79;100706.50;5109889;28;20080;-67
2023/05/03 06:54:07;;;;;;;8.40;5.22;;;;;;;17.46;71.25;100698.88;5111017;28;20155;-67
2023/05/03 06:56:32;;;;;;;11.20;5.20;;;;;;;17.48;71.08;100685.16;5111292;28;20080;-67
2023/05/03 06:58:59;;;;;;;4.82;4.25;;;;;;;17.70;70.80;100709.72;5110133;28;20024;-67
2023/05/03 07:01:25;;;;;;;6.60;4.60;;;;;;;17.84;69.82;100711.72;5111274;28;20023;-67
2023/05/03 07:03:50;;;;;;;9.15;5.57;;;;;;;17.91;68.96;100715.47;5111607;28;20031;-67
2023/05/03 07:06:17;;;;;;;5.40;4.25;;;;;;;18.02;68.50;100717.81;5111567;28;20023;-67
2023/05/03 07:08:42;;;;;;;8.27;3.75;;;;;;;18.08;68.14;100717.13;5110350;28;20019;-67
2023/05/03 07:11:08;;;;;;;4.47;3.92;;;;;;;18.17;67.61;100726.09;5111310;28;20479;-67
2023/05/03 07:13:34;;;;;;;6.68;3.97;;;;;;;18.28;67.43;100719.47;5111182;28;20035;-67
2023/05/03 07:16:00;;;;;;;5.00;4.03;;;;;;;18.38;66.45;100706.56;5111346;28;20024;-67
2023/05/03 07:18:25;;;;;;;6.13;3.95;;;;;;;18.65;65.64;100725.97;5111138;28;20028;-67
2023/05/03 07:20:51;;;;;;;10.82;3.92;;;;;;;18.88;63.90;100726.03;5111274;28;20036;-69
2023/05/03 07:23:16;;;;;;;8.70;4.05;;;;;;;18.88;63.63;100709.72;5110766;28;20038;-67
2023/05/03 07:25:42;;;;;;;5.35;3.60;;;;;;;19.03;63.17;100722.38;5111333;28;20558;-66
2023/05/03 07:28:08;;;;;;;7.30;4.40;;;;;;;19.08;62.97;100725.41;5110954;27;20023;-67
2023/05/03 07:30:33;;;;;;;4.40;4.00;;;;;;;19.18;62.64;100715.13;5111150;27;20043;-65
2023/05/03 07:32:59;;;;;;;5.32;4.07;;;;;;;19.24;63.16;100716.28;5110700;28;20028;-67
2023/05/03 07:35:26;;;;;;;7.00;4.30;;;;;;;19.22;63.13;100702.88;5109913;28;20472;-67
2023/05/03 07:37:51;;;;;;;5.22;3.97;;;;;;;19.52;62.29;100712.88;5110790;28;20026;-67
2023/05/03 07:40:17;;;;;;;5.22;4.30;;;;;;;19.64;62.39;100711.41;5110681;28;20110;-67
2023/05/03 07:42:42;;;;;;;6.57;3.95;;;;;;;19.81;61.92;100712.97;5110732;28;20031;-67
2023/05/03 07:45:08;;;;;;;5.70;3.92;;;;;;;19.94;61.51;100721.34;5110702;28;20062;-67
2023/05/03 07:47:36;;;;;;;8.20;4.00;;;;;;;20.04;61.08;100716.50;5110565;28;20357;-67
2023/05/03 07:50:04;;;;;;;6.32;3.83;;;;;;;20.18;60.65;100707.50;5108906;28;20089;-67
2023/05/03 07:52:29;;;;;;;6.35;4.60;;;;;;;20.15;59.66;100707.03;5110789;28;20027;-68
2023/05/03 07:54:55;;;;;;;4.63;3.90;;;;;;;20.21;59.29;100713.63;5110481;28;20023;-67
2023/05/03 07:57:22;;;;;;;4.00;3.28;;;;;;;20.29;59.15;100714.38;5110564;28;20023;-67
2023/05/03 07:59:48;;;;;;;4.45;3.72;;;;;;;20.30;58.35;100715.19;5109299;28;20027;-67
2023/05/03 08:02:13;;;;;;;6.03;3.58;;;;;;;20.36;58.32;100714.47;5110785;28;20035;-67
2023/05/03 08:04:39;;;;;;;8.93;3.90;;;;;;;20.56;56.56;100721.03;5110717;28;20019;-67
2023/05/03 08:07:04;;;;;;;5.75;3.60;;;;;;;20.59;56.81;100728.81;5110199;28;20134;-66
2023/05/03 08:09:30;;;;;;;5.32;3.90;;;;;;;20.65;56.76;100728.06;5108928;28;20038;-67
2023/05/03 08:11:56;;;;;;;6.28;3.85;;;;;;;20.66;57.33;100722.44;5110374;28;20188;-67
2023/05/03 08:14:22;;;;;;;5.18;3.30;;;;;;;20.82;56.97;100715.91;5109807;28;20027;-67
2023/05/03 08:16:51;;;;;;;4.75;3.47;;;;;;;20.94;56.53;100731.66;5109811;28;20034;-66
2023/05/03 08:19:17;;;;;;;5.75;3.65;;;;;;;21.00;56.49;100722.72;5109885;28;20031;-65
2023/05/03 08:21:42;;;;;;;8.23;3.60;;;;;;;21.14;55.94;100720.94;5110461;28;20517;-67
2023/05/03 08:24:09;;;;;;;6.70;3.33;;;;;;;21.27;55.47;100723.81;5109010;28;20081;-67
2023/05/03 08:26:34;;;;;;;6.00;3.38;;;;;;;21.33;54.67;100714.88;5106140;28;20479;-67
2023/05/03 08:29:02;;;;;;;11.18;3.72;;;;;;;21.34;54.39;100706.50;5109255;28;20030;-67
2023/05/03 08:31:30;;;;;;;5.80;4.25;;;;;;;21.52;54.14;100719.69;5106646;27;20031;-66
2023/05/03 08:33:55;;;;;;;6.03;3.70;;;;;;;21.65;53.32;100717.94;5109735;28;20044;-67
2023/05/03 08:36:21;;;;;;;3.25;2.92;;;;;;;21.67;53.68;100723.19;5109190;28;20031;-67
2023/05/03 08:38:47;;;;;;;6.50;3.70;;;;;;;21.72;53.36;100726.16;5108064;28;20024;-67
2023/05/03 08:41:12;;;;;;;6.13;3.88;;;;;;;21.80;52.25;100723.34;5109526;28;20067;-61
2023/05/03 08:43:43;;;;;;;7.00;3.42;;;;;;;21.84;51.97;100711.84;5108373;28;20039;-61
2023/05/03 08:46:11;;;;;;;8.73;3.95;;;;;;;22.03;51.60;100732.97;5109276;28;20059;-61
2023/05/03 08:48:36;;;;;;;5.93;3.40;;;;;;;22.18;49.85;100727.41;5109654;28;20536;-61
2023/05/03 08:51:03;;;;;;;5.78;3.50;;;;;;;22.41;49.25;100711.59;5109535;28;20031;-67
2023/05/03 08:53:29;;;;;;;5.90;3.55;;;;;;;22.40;49.74;100717.28;5109578;28;20027;-68
2023/05/03 08:55:54;;;;;;;6.40;3.28;;;;;;;22.44;49.57;100724.03;5109571;28;20035;-67
2023/05/03 08:58:20;;;;;;;5.13;3.30;;;;;;;22.50;48.83;100718.63;5109081;28;20024;-66
2023/05/03 09:00:45;;;;;;;7.05;3.40;;;;;;;22.52;47.71;100719.25;5110120;28;20032;-67
2023/05/03 09:03:11;;;;;;;6.25;2.78;;;;;;;22.49;47.30;100714.19;5108113;28;20357;-67
2023/05/03 09:05:37;;;;;;;4.53;3.40;;;;;;;22.62;47.68;100719.75;5109735;28;20023;-67
2023/05/03 09:08:08;;;;;;;8.55;3.60;;;;;;;22.71;47.81;100724.00;5109388;28;20535;-67
2023/05/03 09:10:39;;;;;;;8.23;2.83;;;;;;;22.78;46.13;100730.34;5109094;28;20106;-67
2023/05/03 09:13:06;;;;;;;7.18;2.95;;;;;;;22.76;44.76;100704.25;5109222;28;20024;-67
2023/05/03 09:15:32;;;;;;;4.82;2.92;;;;;;;22.87;44.69;100707.25;5109535;28;20027;-67
2023/05/03 09:18:26;;;;;;;6.47;3.05;;;;;;;22.96;44.85;100705.97;5109395;28;20063;-67
2023/05/03 09:20:51;;;;;;;8.17;3.10;;;;;;;23.07;43.61;100724.56;5106552;28;20031;-67
2023/05/03 09:23:38;;;;;;;6.82;2.67;;;;;;;23.12;42.70;100724.78;5109140;28;20114;-67
2023/05/03 09:26:04;;;;;;;5.43;3.08;;;;;;;23.20;42.43;100719.13;5109296;28;20039;-68
2023/05/03 09:28:40;;;;;;;4.20;3.30;;;;;;;23.26;42.03;100712.88;5109181;28;20015;-67
2023/05/03 09:31:06;;;;;;;7.45;3.30;;;;;;;23.29;40.56;100712.47;5108332;28;20106;-67
2023/05/03 09:33:32;;;;;;;4.38;2.90;;;;;;;23.38;41.19;100724.88;5108616;28;20027;-67
2023/05/03 09:36:03;;;;;;;8.85;2.30;;;;;;;23.47;41.21;100726.38;5109286;28;20210;-68
2023/05/03 09:38:31;;;;;;;3.60;2.80;;;;;;;23.52;41.35;100710.19;5106170;28;20136;-67
2023/05/03 09:40:57;;;;;;;6.13;2.30;;;;;;;23.46;40.32;100691.00;5108714;28;20107;-68
2023/05/03 09:43:23;;;;;;;6.00;2.70;;;;;;;23.66;39.91;100721.97;5108826;28;20132;-67
2023/05/03 09:45:48;;;;;;;4.63;2.20;;;;;;;23.60;39.05;100699.00;5109260;28;20742;-67
2023/05/03 09:48:15;;;;;;;7.85;2.80;;;;;;;23.83;38.23;100724.09;5108868;28;20509;-67
2023/05/03 09:50:42;;;;;;;8.30;3.00;;;;;;;23.90;38.00;100730.41;5109067;28;20055;-67
2023/05/03 09:53:08;;;;;;;3.72;2.13;;;;;;;23.92;38.16;100714.63;5108980;28;20376;-67
2023/05/03 09:55:35;;;;;;;4.07;2.55;;;;;;;23.96;38.02;100726.88;5108856;28;20035;-67
2023/05/03 09:58:07;;;;;;;3.75;2.10;;;;;;;23.96;38.07;100715.91;5108560;28;20032;-67
2023/05/03 10:00:42;;;;;;;4.13;2.55;;;;;;;24.09;38.10;100721.38;5109136;28;20111;-67
2023/05/03 10:03:17;;;;;;;4.25;2.33;;;;;;;24.15;37.54;100725.19;5107141;28;20031;-67
2023/05/03 10:05:46;;;;;;;5.28;2.42;;;;;;;24.17;37.45;100723.91;5108930;28;20514;-67
2023/05/03 10:08:23;;;;;;;2.60;2.10;;;;;;;24.23;37.91;100728.56;5108628;28;20020;-67
2023/05/03 10:10:52;;;;;;;2.85;2.42;;;;;;;24.22;37.97;100721.34;5108939;28;20038;-67
2023/05/03 10:13:20;;;;;;;6.47;2.70;;;;;;;24.23;37.96;100714.00;5108789;28;20510;-67
2023/05/03 10:15:47;;;;;;;3.78;2.67;;;;;;;24.31;37.71;100722.84;5107868;28;20023;-67
2023/05/03 10:18:15;;;;;;;2.72;2.53;;;;;;;24.18;38.32;100720.09;5106181;28;20116;-67
2023/05/03 10:20:47;;;;;;;5.20;3.30;;;;;;;24.07;37.89;100709.81;5108799;28;20035;-67
2023/05/03 10:23:13;;;;;;;6.72;2.60;;;;;;;23.97;38.23;100697.56;5110230;28;20043;-67
2023/05/03 10:25:59;;;;;;;3.60;2.55;;;;;;;24.02;37.19;100706.84;5113012;28;20059;-67
2023/05/03 10:28:24;;;;;;;4.65;2.17;;;;;;;23.97;37.32;100695.69;5111296;28;20027;-67
2023/05/03 10:30:50;;;;;;;6.45;3.05;;;;;;;24.00;37.03;100708.13;5112979;28;20053;-67
2023/05/03 10:33:16;;;;;;;3.90;2.58;;;;;;;24.01;37.63;100702.41;5112697;28;20032;-67
2023/05/03 10:35:47;;;;;;;5.95;2.40;;;;;;;24.00;37.96;100703.50;5112820;28;20031;-67
2023/05/03 10:38:23;;;;;;;3.13;2.47;;;;;;;23.99;38.49;100700.97;5112547;28;20104;-67
2023/05/03 10:40:49;;;;;;;3.65;2.40;;;;;;;24.04;38.06;100709.38;5112882;28;20114;-67
2023/05/03 10:43:30;;;;;;;4.72;2.42;;;;;;;24.09;37.93;100699.44;5112449;28;20028;-67
2023/05/03 10:46:03;;;;;;;3.50;2.55;;;;;;;24.14;37.72;100699.66;5112384;28;20515;-67
2023/05/03 10:48:30;;;;;;;4.32;2.50;;;;;;;24.14;37.74;100702.41;5112334;28;20027;-67
2023/05/03 10:50:57;;;;;;;5.63;2.90;;;;;;;24.04;38.54;100691.03;5112500;28;20035;-67
2023/05/03 10:53:42;;;;;;;7.53;2.90;;;;;;;24.16;38.70;100696.72;5112351;28;20031;-67
2023/05/03 10:56:12;;;;;;;4.15;3.20;;;;;;;24.15;38.32;100697.78;5112287;28;20028;-67
2023/05/03 10:58:42;;;;;;;11.15;2.60;;;;;;;24.16;38.12;100688.50;5110895;28;20242;-67
2023/05/03 11:01:18;;;;;;;4.72;2.65;;;;;;;24.19;38.37;100677.91;5112232;28;20031;-67
2023/05/03 11:04:18;;;;;;;5.60;2.40;;;;;;;24.27;38.31;100691.41;5112467;28;20038;-67
2023/05/03 11:06:47;;;;;;;6.63;2.72;;;;;;;24.29;38.81;100685.72;5097277;28;20085;-66
2023/05/03 11:09:14;;;;;;;4.90;2.53;;;;;;;24.26;38.09;100678.78;5112099;28;20539;-67
2023/05/03 11:11:40;;;;;;;4.80;3.10;;;;;;;24.26;38.38;100688.88;5112838;28;20036;-67
2023/05/03 11:14:08;;;;;;;7.25;2.42;;;;;;;24.17;38.15;100674.56;5112051;28;20024;-67
2023/05/03 11:16:35;;;;;;;5.05;3.00;;;;;;;24.27;38.01;100679.59;5112105;27;20039;-67
2023/05/03 11:19:01;;;;;;;6.45;3.15;;;;;;;24.20;38.32;100670.56;5111959;28;20043;-67
2023/05/03 11:21:27;;;;;;;5.90;2.75;;;;;;;24.20;38.28;100679.63;5111600;28;20122;-67